sensor_id;sensor_type;location;lat;lon;timestamp;pressure;altitude;pressure_sealevel;temperature;humidity
61870;BME280;47810;42.264;23.826;2023-01-26T00:00:27;94355.91;;;-1.72;88.34
61870;BME280;47810;42.264;23.826;2023-01-26T00:03:03;94366.28;;;-1.72;87.91
61870;BME280;47810;42.264;23.826;2023-01-26T00:05:29;94366.25;;;-1.69;87.79
61870;BME280;47810;42.264;23.826;2023-01-26T00:07:54;94364.63;;;-1.79;87.82
61870;BME280;47810;42.264;23.826;2023-01-26T00:10:20;94372.41;;;-1.83;88.08
61870;BME280;47810;42.264;23.826;2023-01-26T00:12:45;94366.44;;;-1.90;88.46
61870;BME280;47810;42.264;23.826;2023-01-26T00:15:13;94357.84;;;-1.92;88.56
61870;BME280;47810;42.264;23.826;2023-01-26T00:17:39;94361.22;;;-1.84;87.70
61870;BME280;47810;42.264;23.826;2023-01-26T00:20:04;94357.84;;;-1.89;88.05
61870;BME280;47810;42.264;23.826;2023-01-26T00:22:30;94358.72;;;-1.93;88.46
61870;BME280;47810;42.264;23.826;2023-01-26T00:24:55;94355.13;;;-1.80;88.04
61870;BME280;47810;42.264;23.826;2023-01-26T00:27:21;94353.47;;;-1.87;87.91
61870;BME280;47810;42.264;23.826;2023-01-26T00:29:46;94344.03;;;-1.91;88.29
61870;BME280;47810;42.264;23.826;2023-01-26T00:32:12;94344.06;;;-1.94;87.52
61870;BME280;47810;42.264;23.826;2023-01-26T00:34:38;94338.84;;;-1.88;86.61
61870;BME280;47810;42.264;23.826;2023-01-26T00:37:03;94347.50;;;-1.92;87.14
61870;BME280;47810;42.264;23.826;2023-01-26T00:39:29;94342.31;;;-1.91;87.02
61870;BME280;47810;42.264;23.826;2023-01-26T00:41:54;94332.78;;;-1.87;86.73
61870;BME280;47810;42.264;23.826;2023-01-26T00:44:34;94336.28;;;-1.91;86.21
61870;BME280;47810;42.264;23.826;2023-01-26T00:47:00;94332.09;;;-2.04;86.40
61870;BME280;47810;42.264;23.826;2023-01-26T00:49:25;94332.00;;;-1.95;86.67
61870;BME280;47810;42.264;23.826;2023-01-26T00:51:51;94334.66;;;-2.01;86.94
61870;BME280;47810;42.264;23.826;2023-01-26T00:54:16;94332.88;;;-1.96;86.67
61870;BME280;47810;42.264;23.826;2023-01-26T00:56:42;94328.47;;;-1.88;86.85
61870;BME280;47810;42.264;23.826;2023-01-26T00:59:07;94331.94;;;-1.86;86.39
61870;BME280;47810;42.264;23.826;2023-01-26T01:01:33;94335.34;;;-1.84;86.67
61870;BME280;47810;42.264;23.826;2023-01-26T01:03:58;94322.47;;;-1.90;86.98
61870;BME280;47810;42.264;23.826;2023-01-26T01:06:24;94321.75;;;-2.06;87.71
61870;BME280;47810;42.264;23.826;2023-01-26T01:08:50;94318.06;;;-1.82;87.67
61870;BME280;47810;42.264;23.826;2023-01-26T01:11:17;94310.34;;;-1.87;87.18
61870;BME280;47810;42.264;23.826;2023-01-26T01:13:42;94306.03;;;-1.86;86.47
61870;BME280;47810;42.264;23.826;2023-01-26T01:16:09;94313.03;;;-1.94;86.72
61870;BME280;47810;42.264;23.826;2023-01-26T01:18:35;94305.19;;;-1.88;86.45
61870;BME280;47810;42.264;23.826;2023-01-26T01:21:04;94302.56;;;-1.85;86.63
61870;BME280;47810;42.264;23.826;2023-01-26T01:23:30;94294.00;;;-1.90;87.15
61870;BME280;47810;42.264;23.826;2023-01-26T01:25:56;94293.97;;;-1.87;87.12
61870;BME280;47810;42.264;23.826;2023-01-26T01:28:21;94292.09;;;-1.73;85.92
61870;BME280;47810;42.264;23.826;2023-01-26T01:30:47;94292.91;;;-1.71;86.29
61870;BME280;47810;42.264;23.826;2023-01-26T01:33:12;94280.19;;;-1.89;87.04
61870;BME280;47810;42.264;23.826;2023-01-26T01:35:38;94285.19;;;-1.74;86.64
61870;BME280;47810;42.264;23.826;2023-01-26T01:38:03;94285.19;;;-1.74;86.34
61870;BME280;47810;42.264;23.826;2023-01-26T01:40:29;94285.25;;;-1.80;86.63
61870;BME280;47810;42.264;23.826;2023-01-26T01:42:55;94281.88;;;-1.87;87.02
61870;BME280;47810;42.264;23.826;2023-01-26T01:45:42;94286.94;;;-1.76;86.73
61870;BME280;47810;42.264;23.826;2023-01-26T01:48:09;94278.25;;;-1.72;86.05
61870;BME280;47810;42.264;23.826;2023-01-26T01:50:37;94273.19;;;-1.81;86.26
61870;BME280;47810;42.264;23.826;2023-01-26T01:53:04;94270.75;;;-1.93;86.67
61870;BME280;47810;42.264;23.826;2023-01-26T01:55:31;94263.78;;;-1.90;87.08
61870;BME280;47810;42.264;23.826;2023-01-26T01:57:57;94264.59;;;-1.83;86.41
61870;BME280;47810;42.264;23.826;2023-01-26T02:00:24;94262.09;;;-1.91;86.65
61870;BME280;47810;42.264;23.826;2023-01-26T02:05:39;94264.75;;;-1.97;87.60
61870;BME280;47810;42.264;23.826;2023-01-26T02:08:06;94260.34;;;-1.89;87.70
61870;BME280;47810;42.264;23.826;2023-01-26T02:10:33;94264.63;;;-1.84;87.39
61870;BME280;47810;42.264;23.826;2023-01-26T02:13:00;94262.94;;;-1.90;87.33
61870;BME280;47810;42.264;23.826;2023-01-26T02:15:26;94257.81;;;-1.93;87.44
61870;BME280;47810;42.264;23.826;2023-01-26T02:17:52;94261.09;;;-1.80;86.73
61870;BME280;47810;42.264;23.826;2023-01-26T02:25:31;94250.81;;;-1.87;86.59
61870;BME280;47810;42.264;23.826;2023-01-26T02:27:59;94238.81;;;-1.89;87.30
61870;BME280;47810;42.264;23.826;2023-01-26T02:30:25;94238.72;;;-1.83;85.40
61870;BME280;47810;42.264;23.826;2023-01-26T02:32:51;94237.16;;;-1.99;86.20
61870;BME280;47810;42.264;23.826;2023-01-26T02:35:17;94233.66;;;-1.92;85.88
61870;BME280;47810;42.264;23.826;2023-01-26T02:37:42;94230.22;;;-1.94;85.58
61870;BME280;47810;42.264;23.826;2023-01-26T02:40:12;94233.66;;;-1.92;85.26
61870;BME280;47810;42.264;23.826;2023-01-26T02:42:40;94225.06;;;-1.94;86.15
61870;BME280;47810;42.264;23.826;2023-01-26T02:45:08;94222.34;;;-1.87;85.53
61870;BME280;47810;42.264;23.826;2023-01-26T02:47:34;94222.44;;;-1.93;85.33
61870;BME280;47810;42.264;23.826;2023-01-26T02:50:00;94223.41;;;-2.01;86.18
61870;BME280;47810;42.264;23.826;2023-01-26T02:52:27;94219.06;;;-1.99;85.80
61870;BME280;47810;42.264;23.826;2023-01-26T02:54:53;94214.78;;;-2.00;84.51
61870;BME280;47810;42.264;23.826;2023-01-26T02:57:37;94214.03;;;-2.10;85.35
61870;BME280;47810;42.264;23.826;2023-01-26T03:00:04;94207.91;;;-2.01;85.40
61870;BME280;47810;42.264;23.826;2023-01-26T03:02:30;94209.59;;;-2.00;85.02
61870;BME280;47810;42.264;23.826;2023-01-26T03:04:56;94201.94;;;-2.08;85.73
61870;BME280;47810;42.264;23.826;2023-01-26T03:07:21;94201.88;;;-2.03;85.44
61870;BME280;47810;42.264;23.826;2023-01-26T03:09:47;94194.22;;;-2.13;85.51
61870;BME280;47810;42.264;23.826;2023-01-26T03:12:13;94196.72;;;-2.06;85.84
61870;BME280;47810;42.264;23.826;2023-01-26T03:14:39;94189.00;;;-2.09;85.67
61870;BME280;47810;42.264;23.826;2023-01-26T03:17:05;94183.78;;;-2.06;86.08
61870;BME280;47810;42.264;23.826;2023-01-26T03:19:30;94182.06;;;-2.04;85.86
61870;BME280;47810;42.264;23.826;2023-01-26T03:22:14;94176.03;;;-2.05;86.13
61870;BME280;47810;42.264;23.826;2023-01-26T03:24:58;94168.97;;;-1.94;85.93
61870;BME280;47810;42.264;23.826;2023-01-26T03:27:43;94169.00;;;-1.95;85.87
61870;BME280;47810;42.264;23.826;2023-01-26T03:30:09;94175.00;;;-1.93;85.13
61870;BME280;47810;42.264;23.826;2023-01-26T03:32:35;94163.00;;;-1.97;85.74
61870;BME280;47810;42.264;23.826;2023-01-26T03:35:00;94167.34;;;-2.01;86.15
61870;BME280;47810;42.264;23.826;2023-01-26T03:37:26;94166.53;;;-2.04;85.97
61870;BME280;47810;42.264;23.826;2023-01-26T03:39:52;94159.59;;;-2.02;86.08
61870;BME280;47810;42.264;23.826;2023-01-26T03:42:36;94168.25;;;-2.03;85.91
61870;BME280;47810;42.264;23.826;2023-01-26T03:45:20;94157.84;;;-2.00;86.09
61870;BME280;47810;42.264;23.826;2023-01-26T03:48:08;94152.66;;;-1.97;85.51
61870;BME280;47810;42.264;23.826;2023-01-26T03:50:52;94152.59;;;-1.94;84.67
61870;BME280;47810;42.264;23.826;2023-01-26T03:53:36;94145.84;;;-2.04;84.76
61870;BME280;47810;42.264;23.826;2023-01-26T03:56:20;94146.72;;;-2.07;84.89
61870;BME280;47810;42.264;23.826;2023-01-26T03:58:48;94137.22;;;-2.06;85.58
61870;BME280;47810;42.264;23.826;2023-01-26T04:01:14;94137.16;;;-2.00;85.72
61870;BME280;47810;42.264;23.826;2023-01-26T04:03:45;94133.78;;;-2.05;85.61
61870;BME280;47810;42.264;23.826;2023-01-26T04:06:30;94141.56;;;-2.07;85.59
61870;BME280;47810;42.264;23.826;2023-01-26T04:09:14;94135.66;;;-2.17;85.86
61870;BME280;47810;42.264;23.826;2023-01-26T04:11:39;94129.44;;;-2.03;85.94
61870;BME280;47810;42.264;23.826;2023-01-26T04:14:05;94125.94;;;-1.99;85.31
61870;BME280;47810;42.264;23.826;2023-01-26T04:16:49;94125.16;;;-2.04;85.66
61870;BME280;47810;42.264;23.826;2023-01-26T04:19:32;94129.47;;;-2.06;85.63
61870;BME280;47810;42.264;23.826;2023-01-26T04:22:16;94126.94;;;-2.09;86.16
61870;BME280;47810;42.264;23.826;2023-01-26T04:24:43;94120.00;;;-2.07;86.01
61870;BME280;47810;42.264;23.826;2023-01-26T04:27:08;94111.34;;;-2.03;85.59
61870;BME280;47810;42.264;23.826;2023-01-26T04:29:35;94109.59;;;-2.01;85.60
61870;BME280;47810;42.264;23.826;2023-01-26T04:32:01;94107.09;;;-2.07;85.56
61870;BME280;47810;42.264;23.826;2023-01-26T04:34:26;94096.75;;;-2.07;85.81
61870;BME280;47810;42.264;23.826;2023-01-26T04:36:52;94095.03;;;-2.10;86.20
61870;BME280;47810;42.264;23.826;2023-01-26T04:39:18;94089.91;;;-2.13;86.54
61870;BME280;47810;42.264;23.826;2023-01-26T04:41:43;94087.34;;;-2.15;86.60
61870;BME280;47810;42.264;23.826;2023-01-26T04:44:09;94082.22;;;-2.18;87.01
61870;BME280;47810;42.264;23.826;2023-01-26T04:46:34;94085.63;;;-2.14;86.71
61870;BME280;47810;42.264;23.826;2023-01-26T04:49:00;94080.38;;;-2.09;86.58
61870;BME280;47810;42.264;23.826;2023-01-26T04:51:25;94086.31;;;-2.03;85.62
61870;BME280;47810;42.264;23.826;2023-01-26T04:53:52;94089.81;;;-2.07;85.86
61870;BME280;47810;42.264;23.826;2023-01-26T04:56:19;94075.31;;;-2.19;86.51
61870;BME280;47810;42.264;23.826;2023-01-26T04:58:46;94086.47;;;-2.15;86.62
61870;BME280;47810;42.264;23.826;2023-01-26T05:01:11;94082.38;;;-2.30;86.16
61870;BME280;47810;42.264;23.826;2023-01-26T05:03:37;94084.88;;;-2.24;86.43
61870;BME280;47810;42.264;23.826;2023-01-26T05:06:02;94082.13;;;-2.12;86.43
61870;BME280;47810;42.264;23.826;2023-01-26T05:08:28;94081.13;;;-2.01;85.88
61870;BME280;47810;42.264;23.826;2023-01-26T05:10:53;94076.88;;;-2.05;86.19
61870;BME280;47810;42.264;23.826;2023-01-26T05:13:19;94082.16;;;-2.13;86.60
61870;BME280;47810;42.264;23.826;2023-01-26T05:15:45;94082.25;;;-2.21;86.83
61870;BME280;47810;42.264;23.826;2023-01-26T05:18:11;94076.25;;;-2.21;87.04
61870;BME280;47810;42.264;23.826;2023-01-26T05:20:37;94075.38;;;-2.25;86.90
61870;BME280;47810;42.264;23.826;2023-01-26T05:23:02;94077.25;;;-2.33;87.62
61870;BME280;47810;42.264;23.826;2023-01-26T05:25:28;94071.25;;;-2.37;87.92
61870;BME280;47810;42.264;23.826;2023-01-26T05:27:53;94073.06;;;-2.43;88.22
61870;BME280;47810;42.264;23.826;2023-01-26T05:30:19;94073.84;;;-2.38;88.07
61870;BME280;47810;42.264;23.826;2023-01-26T05:32:45;94077.38;;;-2.45;88.36
61870;BME280;47810;42.264;23.826;2023-01-26T05:35:10;94066.19;;;-2.47;88.74
61870;BME280;47810;42.264;23.826;2023-01-26T05:37:39;94068.88;;;-2.53;88.75
61870;BME280;47810;42.264;23.826;2023-01-26T05:40:07;94070.69;;;-2.62;88.73
61870;BME280;47810;42.264;23.826;2023-01-26T05:42:32;94065.66;;;-2.74;89.51
61870;BME280;47810;42.264;23.826;2023-01-26T05:44:58;94062.13;;;-2.67;89.69
61870;BME280;47810;42.264;23.826;2023-01-26T05:47:24;94062.13;;;-2.67;89.56
61870;BME280;47810;42.264;23.826;2023-01-26T05:49:49;94072.50;;;-2.70;89.63
61870;BME280;47810;42.264;23.826;2023-01-26T05:52:15;94065.63;;;-2.71;89.94
61870;BME280;47810;42.264;23.826;2023-01-26T05:54:41;94071.78;;;-2.81;90.06
61870;BME280;47810;42.264;23.826;2023-01-26T05:57:07;94072.66;;;-2.82;90.07
61870;BME280;47810;42.264;23.826;2023-01-26T05:59:33;94066.56;;;-2.79;90.26
61870;BME280;47810;42.264;23.826;2023-01-26T06:01:58;94060.44;;;-2.68;90.02
61870;BME280;47810;42.264;23.826;2023-01-26T06:04:24;94053.56;;;-2.69;90.04
61870;BME280;47810;42.264;23.826;2023-01-26T06:06:54;94056.97;;;-2.67;89.79
61870;BME280;47810;42.264;23.826;2023-01-26T06:09:20;94053.50;;;-2.64;89.82
61870;BME280;47810;42.264;23.826;2023-01-26T06:11:45;94055.03;;;-2.49;89.32
61870;BME280;47810;42.264;23.826;2023-01-26T06:14:11;94049.91;;;-2.52;89.20
61870;BME280;47810;42.264;23.826;2023-01-26T06:16:37;94049.94;;;-2.55;88.92
61870;BME280;47810;42.264;23.826;2023-01-26T06:19:02;94051.59;;;-2.51;88.78
61870;BME280;47810;42.264;23.826;2023-01-26T06:21:29;94055.00;;;-2.46;88.82
61870;BME280;47810;42.264;23.826;2023-01-26T06:23:55;94052.34;;;-2.40;88.00
61870;BME280;47810;42.264;23.826;2023-01-26T06:26:20;94051.38;;;-2.35;87.62
61870;BME280;47810;42.264;23.826;2023-01-26T06:28:48;94050.63;;;-2.41;88.34
61870;BME280;47810;42.264;23.826;2023-01-26T06:31:13;94055.72;;;-2.33;87.96
61870;BME280;47810;42.264;23.826;2023-01-26T06:33:39;94049.59;;;-2.28;87.87
61870;BME280;47810;42.264;23.826;2023-01-26T06:36:06;94049.69;;;-2.34;87.72
61870;BME280;47810;42.264;23.826;2023-01-26T06:38:32;94038.56;;;-2.42;88.27
61870;BME280;47810;42.264;23.826;2023-01-26T06:40:58;94046.19;;;-2.30;87.72
61870;BME280;47810;42.264;23.826;2023-01-26T06:43:24;94039.34;;;-2.34;87.89
61870;BME280;47810;42.264;23.826;2023-01-26T06:45:50;94037.69;;;-2.40;87.89
61870;BME280;47810;42.264;23.826;2023-01-26T06:48:15;94038.59;;;-2.44;87.92
61870;BME280;47810;42.264;23.826;2023-01-26T06:50:41;94031.84;;;-2.55;88.35
61870;BME280;47810;42.264;23.826;2023-01-26T06:56:06;94030.16;;;-2.56;88.47
61870;BME280;47810;42.264;23.826;2023-01-26T06:58:31;94039.59;;;-2.55;88.35
61870;BME280;47810;42.264;23.826;2023-01-26T07:00:57;94022.31;;;-2.52;88.61
61870;BME280;47810;42.264;23.826;2023-01-26T07:03:23;94032.84;;;-2.66;88.82
61870;BME280;47810;42.264;23.826;2023-01-26T07:05:49;94025.06;;;-2.64;88.75
61870;BME280;47810;42.264;23.826;2023-01-26T07:08:17;94019.81;;;-2.56;88.72
61870;BME280;47810;42.264;23.826;2023-01-26T07:10:42;94017.28;;;-2.60;88.94
61870;BME280;47810;42.264;23.826;2023-01-26T07:13:08;94012.13;;;-2.63;89.02
61870;BME280;47810;42.264;23.826;2023-01-26T07:15:33;94016.50;;;-2.68;89.30
61870;BME280;47810;42.264;23.826;2023-01-26T07:18:01;94009.28;;;-2.44;88.79
61870;BME280;47810;42.264;23.826;2023-01-26T07:20:27;93997.97;;;-2.34;88.64
61870;BME280;47810;42.264;23.826;2023-01-26T07:22:52;93996.25;;;-2.35;88.75
61870;BME280;47810;42.264;23.826;2023-01-26T07:25:18;94000.59;;;-2.39;88.85
61870;BME280;47810;42.264;23.826;2023-01-26T07:27:44;94002.41;;;-2.44;88.96
61870;BME280;47810;42.264;23.826;2023-01-26T07:30:10;94001.44;;;-2.38;88.92
61870;BME280;47810;42.264;23.826;2023-01-26T07:32:36;93997.16;;;-2.39;89.14
61870;BME280;47810;42.264;23.826;2023-01-26T07:35:04;93996.31;;;-2.41;88.96
61870;BME280;47810;42.264;23.826;2023-01-26T07:37:31;93999.63;;;-2.30;89.09
61870;BME280;47810;42.264;23.826;2023-01-26T07:39:56;94008.06;;;-2.19;88.66
61870;BME280;47810;42.264;23.826;2023-01-26T07:42:24;94004.50;;;-2.08;88.24
61870;BME280;47810;42.264;23.826;2023-01-26T07:44:54;94007.09;;;-2.10;88.40
61870;BME280;47810;42.264;23.826;2023-01-26T07:47:20;94009.63;;;-2.05;88.41
61870;BME280;47810;42.264;23.826;2023-01-26T07:49:46;93992.44;;;-2.09;88.27
61870;BME280;47810;42.264;23.826;2023-01-26T07:52:12;93993.22;;;-2.04;88.03
61870;BME280;47810;42.264;23.826;2023-01-26T07:54:38;93988.72;;;-1.93;87.56
61870;BME280;47810;42.264;23.826;2023-01-26T07:57:11;93990.41;;;-1.91;87.86
61870;BME280;47810;42.264;23.826;2023-01-26T07:59:39;93982.66;;;-1.89;87.74
61870;BME280;47810;42.264;23.826;2023-01-26T08:02:05;93986.78;;;-1.80;87.15
61870;BME280;47810;42.264;23.826;2023-01-26T08:04:31;93981.53;;;-1.74;87.38
61870;BME280;47810;42.264;23.826;2023-01-26T08:06:59;93985.28;;;-1.92;87.72
61870;BME280;47810;42.264;23.826;2023-01-26T08:09:25;93981.50;;;-1.73;87.70
61870;BME280;47810;42.264;23.826;2023-01-26T08:11:50;93971.00;;;-1.63;87.48
61870;BME280;47810;42.264;23.826;2023-01-26T08:14:16;93969.13;;;-1.55;87.25
61870;BME280;47810;42.264;23.826;2023-01-26T08:16:44;93974.16;;;-1.46;86.89
61870;BME280;47810;42.264;23.826;2023-01-26T08:19:12;93967.28;;;-1.47;87.18
61870;BME280;47810;42.264;23.826;2023-01-26T08:21:37;93961.00;;;-1.34;86.17
61870;BME280;47810;42.264;23.826;2023-01-26T08:24:09;93957.41;;;-1.27;86.22
61870;BME280;47810;42.264;23.826;2023-01-26T08:26:35;93955.19;;;-1.48;85.63
61870;BME280;47810;42.264;23.826;2023-01-26T08:29:00;93957.88;;;-1.53;86.05
61870;BME280;47810;42.264;23.826;2023-01-26T08:31:26;93951.75;;;-1.47;86.30
61870;BME280;47810;42.264;23.826;2023-01-26T08:33:52;93949.91;;;-1.42;85.89
61870;BME280;47810;42.264;23.826;2023-01-26T08:36:19;93958.56;;;-1.43;86.22
61870;BME280;47810;42.264;23.826;2023-01-26T08:38:45;93955.19;;;-1.48;86.05
61870;BME280;47810;42.264;23.826;2023-01-26T08:41:11;93959.72;;;-1.59;86.73
61870;BME280;47810;42.264;23.826;2023-01-26T08:43:37;93961.84;;;-1.35;86.53
61870;BME280;47810;42.264;23.826;2023-01-26T08:46:03;93963.69;;;-1.42;86.39
61870;BME280;47810;42.264;23.826;2023-01-26T08:48:33;93952.75;;;-1.56;86.38
61870;BME280;47810;42.264;23.826;2023-01-26T08:50:59;93954.38;;;-1.52;86.48
61870;BME280;47810;42.264;23.826;2023-01-26T08:53:25;93952.44;;;-1.39;87.01
61870;BME280;47810;42.264;23.826;2023-01-26T08:55:51;93950.56;;;-1.31;86.59
61870;BME280;47810;42.264;23.826;2023-01-26T08:58:19;93957.38;;;-1.25;85.89
61870;BME280;47810;42.264;23.826;2023-01-26T09:00:50;93950.34;;;-1.19;85.88
61870;BME280;47810;42.264;23.826;2023-01-26T09:03:15;93957.53;;;-1.34;85.91
61870;BME280;47810;42.264;23.826;2023-01-26T09:05:41;93945.34;;;-1.28;86.20
61870;BME280;47810;42.264;23.826;2023-01-26T09:08:09;93947.44;;;-1.03;85.76
61870;BME280;47810;42.264;23.826;2023-01-26T09:10:36;93952.53;;;-0.99;85.10
61870;BME280;47810;42.264;23.826;2023-01-26T09:13:04;93945.06;;;-1.14;85.40
61870;BME280;47810;42.264;23.826;2023-01-26T09:15:29;93950.69;;;-0.92;85.46
61870;BME280;47810;42.264;23.826;2023-01-26T09:17:55;93930.56;;;-0.79;84.99
61870;BME280;47810;42.264;23.826;2023-01-26T09:20:24;93924.34;;;-0.71;84.41
61870;BME280;47810;42.264;23.826;2023-01-26T09:22:49;93929.34;;;-0.64;84.03
61870;BME280;47810;42.264;23.826;2023-01-26T09:25:15;93923.44;;;-0.69;84.02
61870;BME280;47810;42.264;23.826;2023-01-26T09:27:40;93913.72;;;-0.61;83.38
61870;BME280;47810;42.264;23.826;2023-01-26T09:30:09;93910.94;;;-0.51;82.92
61870;BME280;47810;42.264;23.826;2023-01-26T09:32:34;93905.41;;;-0.35;82.75
61870;BME280;47810;42.264;23.826;2023-01-26T09:35:00;93901.78;;;-0.28;82.53
61870;BME280;47810;42.264;23.826;2023-01-26T09:37:25;93892.31;;;0.05;82.35
61870;BME280;47810;42.264;23.826;2023-01-26T09:39:51;93895.66;;;0.10;81.00
61870;BME280;47810;42.264;23.826;2023-01-26T09:47:25;93877.88;;;0.29;79.99
61870;BME280;47810;42.264;23.826;2023-01-26T09:50:02;93870.16;;;0.26;80.15
61870;BME280;47810;42.264;23.826;2023-01-26T09:52:54;93870.50;;;0.12;80.90
61870;BME280;47810;42.264;23.826;2023-01-26T09:55:24;93880.97;;;0.09;81.06
61870;BME280;47810;42.264;23.826;2023-01-26T10:00:36;93882.22;;;-0.06;81.10
61870;BME280;47810;42.264;23.826;2023-01-26T10:05:50;93882.84;;;-0.33;81.70
61870;BME280;47810;42.264;23.826;2023-01-26T10:08:20;93876.97;;;-0.40;81.38
61870;BME280;47810;42.264;23.826;2023-01-26T10:10:53;93871.84;;;-0.43;81.82
61870;BME280;47810;42.264;23.826;2023-01-26T10:13:20;93864.19;;;-0.48;82.45
61870;BME280;47810;42.264;23.826;2023-01-26T10:15:48;93866.09;;;-0.56;82.32
61870;BME280;47810;42.264;23.826;2023-01-26T10:18:21;93861.88;;;-0.61;83.16
61870;BME280;47810;42.264;23.826;2023-01-26T10:20:49;93856.56;;;-0.55;82.83
61870;BME280;47810;42.264;23.826;2023-01-26T10:23:16;93846.31;;;-0.61;82.98
61870;BME280;47810;42.264;23.826;2023-01-26T10:25:44;93834.38;;;-0.67;83.45
61870;BME280;47810;42.264;23.826;2023-01-26T10:30:39;93815.91;;;-0.53;83.24
61870;BME280;47810;42.264;23.826;2023-01-26T10:33:09;93805.41;;;-0.49;83.16
61870;BME280;47810;42.264;23.826;2023-01-26T10:35:36;93799.44;;;-0.52;82.85
61870;BME280;47810;42.264;23.826;2023-01-26T10:38:03;93799.28;;;-0.46;83.14
61870;BME280;47810;42.264;23.826;2023-01-26T10:40:49;93800.00;;;-0.39;82.29
61870;BME280;47810;42.264;23.826;2023-01-26T10:43:16;93782.59;;;-0.34;82.60
61870;BME280;47810;42.264;23.826;2023-01-26T10:45:45;93780.25;;;-0.45;82.60
61870;BME280;47810;42.264;23.826;2023-01-26T10:48:20;93779.78;;;-0.27;82.14
61870;BME280;47810;42.264;23.826;2023-01-26T10:50:49;93779.00;;;-0.29;82.14
61870;BME280;47810;42.264;23.826;2023-01-26T10:53:28;93776.09;;;-0.52;82.54
61870;BME280;47810;42.264;23.826;2023-01-26T10:55:58;93766.25;;;-0.38;82.58
61870;BME280;47810;42.264;23.826;2023-01-26T11:01:09;93772.84;;;-0.25;81.80
61870;BME280;47810;42.264;23.826;2023-01-26T11:03:37;93756.66;;;-0.34;81.88
61870;BME280;47810;42.264;23.826;2023-01-26T11:06:20;93754.16;;;-0.39;82.16
61870;BME280;47810;42.264;23.826;2023-01-26T11:08:50;93759.13;;;-0.30;82.23
61870;BME280;47810;42.264;23.826;2023-01-26T11:11:23;93746.97;;;-0.28;81.89
61870;BME280;47810;42.264;23.826;2023-01-26T11:16:34;93729.88;;;-0.35;82.05
61870;BME280;47810;42.264;23.826;2023-01-26T11:19:08;93729.63;;;-0.26;82.15
61870;BME280;47810;42.264;23.826;2023-01-26T11:24:08;93719.66;;;-0.08;81.41
61870;BME280;47810;42.264;23.826;2023-01-26T11:35:00;93710.19;;;-0.09;80.97
61870;BME280;47810;42.264;23.826;2023-01-26T11:40:08;93697.91;;;-0.04;80.59
61870;BME280;47810;42.264;23.826;2023-01-26T11:45:15;93687.22;;;-0.25;81.69
61870;BME280;47810;42.264;23.826;2023-01-26T11:50:37;93687.22;;;-0.25;81.87
61870;BME280;47810;42.264;23.826;2023-01-26T12:03:55;93650.16;;;0.33;79.44
61870;BME280;47810;42.264;23.826;2023-01-26T12:09:05;93653.09;;;0.50;79.88
61870;BME280;47810;42.264;23.826;2023-01-26T12:11:41;93647.22;;;0.43;79.47
61870;BME280;47810;42.264;23.826;2023-01-26T12:20:29;93628.81;;;0.51;78.65
61870;BME280;47810;42.264;23.826;2023-01-26T12:22:59;93640.81;;;0.55;78.54
61870;BME280;47810;42.264;23.826;2023-01-26T12:25:36;93631.22;;;0.57;78.99
61870;BME280;47810;42.264;23.826;2023-01-26T12:32:59;93631.50;;;0.48;79.07
61870;BME280;47810;42.264;23.826;2023-01-26T12:38:13;93625.31;;;0.52;78.47
61870;BME280;47810;42.264;23.826;2023-01-26T12:46:04;93619.84;;;0.33;79.80
61870;BME280;47810;42.264;23.826;2023-01-26T12:48:43;93619.00;;;0.33;78.85
61870;BME280;47810;42.264;23.826;2023-01-26T12:51:13;93616.56;;;0.27;78.73
61870;BME280;47810;42.264;23.826;2023-01-26T12:53:46;93608.53;;;0.36;79.00
61870;BME280;47810;42.264;23.826;2023-01-26T12:56:20;93610.13;;;0.40;77.90
61870;BME280;47810;42.264;23.826;2023-01-26T12:58:46;93611.22;;;0.31;78.19
61870;BME280;47810;42.264;23.826;2023-01-26T13:01:13;93605.47;;;0.21;78.53
61870;BME280;47810;42.264;23.826;2023-01-26T13:03:44;93608.41;;;0.11;78.77
61870;BME280;47810;42.264;23.826;2023-01-26T13:08:49;93610.16;;;0.09;79.54
61870;BME280;47810;42.264;23.826;2023-01-26T13:11:52;93597.16;;;0.10;78.97
61870;BME280;47810;42.264;23.826;2023-01-26T13:14:28;93603.97;;;0.14;78.95
61870;BME280;47810;42.264;23.826;2023-01-26T13:16:54;93601.97;;;-0.07;79.77
61870;BME280;47810;42.264;23.826;2023-01-26T13:22:17;93595.84;;;-0.03;79.44
61870;BME280;47810;42.264;23.826;2023-01-26T13:29:57;93592.00;;;-0.21;80.29
61870;BME280;47810;42.264;23.826;2023-01-26T13:39:57;93573.44;;;-0.37;81.59
61870;BME280;47810;42.264;23.826;2023-01-26T13:42:24;93569.91;;;-0.34;81.69
61870;BME280;47810;42.264;23.826;2023-01-26T13:44:59;93573.53;;;-0.40;81.28
61870;BME280;47810;42.264;23.826;2023-01-26T13:47:28;93566.56;;;-0.38;81.80
61870;BME280;47810;42.264;23.826;2023-01-26T13:49:59;93560.56;;;-0.40;82.45
61870;BME280;47810;42.264;23.826;2023-01-26T13:52:25;93561.53;;;-0.44;82.60
61870;BME280;47810;42.264;23.826;2023-01-26T13:54:51;93557.22;;;-0.45;82.20
61870;BME280;47810;42.264;23.826;2023-01-26T13:57:21;93559.03;;;-0.47;82.96
61870;BME280;47810;42.264;23.826;2023-01-26T13:59:48;93554.78;;;-0.50;82.87
61870;BME280;47810;42.264;23.826;2023-01-26T14:04:53;93551.38;;;-0.52;83.37
61870;BME280;47810;42.264;23.826;2023-01-26T14:07:22;93545.34;;;-0.52;83.51
61870;BME280;47810;42.264;23.826;2023-01-26T14:09:49;93534.97;;;-0.52;83.80
61870;BME280;47810;42.264;23.826;2023-01-26T14:12:16;93535.53;;;-0.41;82.82
61870;BME280;47810;42.264;23.826;2023-01-26T14:14:47;93520.41;;;-0.27;81.44
61870;BME280;47810;42.264;23.826;2023-01-26T14:17:22;93531.84;;;-0.34;82.14
61870;BME280;47810;42.264;23.826;2023-01-26T14:19:48;93528.44;;;-0.36;81.60
61870;BME280;47810;42.264;23.826;2023-01-26T14:22:14;93518.16;;;-0.39;82.46
61870;BME280;47810;42.264;23.826;2023-01-26T14:24:40;93522.13;;;-0.26;81.64
61870;BME280;47810;42.264;23.826;2023-01-26T14:29:44;93518.72;;;-0.28;82.58
61870;BME280;47810;42.264;23.826;2023-01-26T14:32:15;93513.69;;;-0.34;82.55
61870;BME280;47810;42.264;23.826;2023-01-26T14:34:53;93509.09;;;-0.24;81.83
61870;BME280;47810;42.264;23.826;2023-01-26T14:37:19;93499.66;;;-0.27;81.71
61870;BME280;47810;42.264;23.826;2023-01-26T14:39:45;93503.84;;;-0.22;82.04